createdAt,value
2022-09-06T00:02:56.221Z,22.40
2022-09-06T00:06:59.064Z,22.40
2022-09-06T00:11:03.899Z,22.30
2022-09-06T00:15:07.580Z,22.30
2022-09-06T00:19:10.351Z,22.20
2022-09-06T00:23:13.158Z,22.20
2022-09-06T00:27:17.251Z,22.10
2022-09-06T00:31:24.121Z,22.10
2022-09-06T00:35:27.927Z,22.10
2022-09-06T00:39:30.727Z,22.10
2022-09-06T00:43:34.990Z,22.00
2022-09-06T00:47:40.120Z,22.00
2022-09-06T00:51:43.615Z,22.00
2022-09-06T00:55:46.623Z,21.90
2022-09-06T00:59:51.558Z,21.90
2022-09-06T01:03:54.787Z,21.90
2022-09-06T01:08:06.417Z,21.90
2022-09-06T01:12:25.946Z,21.90
2022-09-06T01:16:40.156Z,21.80
2022-09-06T01:20:53.912Z,21.80
2022-09-06T01:25:18.935Z,21.70
2022-09-06T01:29:30.307Z,21.70
2022-09-06T01:33:40.021Z,21.70
2022-09-06T01:37:43.494Z,21.70
2022-09-06T01:41:46.309Z,21.60
2022-09-06T01:46:01.789Z,21.60
2022-09-06T01:50:23.978Z,21.50
2022-09-06T01:54:34.993Z,21.50
2022-09-06T01:58:53.037Z,21.50
2022-09-06T02:03:09.665Z,21.50
2022-09-06T02:07:17.759Z,21.40
2022-09-06T02:11:20.810Z,21.40
2022-09-06T02:15:26.774Z,21.40
2022-09-06T02:19:36.897Z,21.40
2022-09-06T02:23:41.621Z,21.30
2022-09-06T02:27:44.468Z,21.30
2022-09-06T02:31:51.529Z,21.30
2022-09-06T02:35:56.851Z,21.20
2022-09-06T02:40:00.248Z,21.20
2022-09-06T02:44:03.452Z,21.20
2022-09-06T02:48:06.389Z,21.20
2022-09-06T02:52:10.462Z,21.10
2022-09-06T02:56:13.451Z,21.10
2022-09-06T03:00:16.961Z,21.10
2022-09-06T03:04:19.751Z,21.10
2022-09-06T03:08:26.142Z,21.10
2022-09-06T03:12:28.966Z,21.00
2022-09-06T03:16:31.824Z,21.00
2022-09-06T03:20:37.141Z,21.00
2022-09-06T03:24:41.529Z,21.00
2022-09-06T03:28:44.317Z,21.00
2022-09-06T03:32:47.058Z,21.00
2022-09-06T03:36:49.821Z,21.00
2022-09-06T03:40:54.057Z,21.00
2022-09-06T03:44:56.880Z,21.10
2022-09-06T03:49:00.088Z,21.20
2022-09-06T03:53:02.907Z,21.20
2022-09-06T03:57:07.106Z,21.30
2022-09-06T04:01:11.579Z,21.40
2022-09-06T04:05:16.464Z,21.40
2022-09-06T04:09:19.278Z,21.40
2022-09-06T04:13:24.626Z,21.30
2022-09-06T04:17:27.398Z,21.30
2022-09-06T04:21:30.274Z,21.30
2022-09-06T04:25:33.214Z,21.30
2022-09-06T04:29:37.302Z,21.40
2022-09-06T04:33:40.251Z,21.30
2022-09-06T04:37:43.138Z,21.30
2022-09-06T04:41:45.921Z,21.20
2022-09-06T04:45:50.277Z,21.20
2022-09-06T04:49:53.640Z,21.10
2022-09-06T04:53:56.551Z,21.10
2022-09-06T04:58:00.126Z,21.10
2022-09-06T05:02:04.846Z,21.00
2022-09-06T05:15:53.023Z,20.70
2022-09-06T05:19:57.610Z,20.70
2022-09-06T05:24:00.394Z,20.70
2022-09-06T05:28:03.638Z,20.60
2022-09-06T05:32:07.185Z,20.60
2022-09-06T05:36:11.317Z,20.60
2022-09-06T05:40:14.246Z,20.60
2022-09-06T05:44:17.022Z,20.60
2022-09-06T05:48:20.125Z,20.60
2022-09-06T05:52:24.241Z,20.60
2022-09-06T05:56:27.114Z,20.60
2022-09-06T06:00:29.923Z,20.60
2022-09-06T06:04:32.875Z,20.60
2022-09-06T06:08:37.545Z,20.60
2022-09-06T06:12:40.387Z,20.70
2022-09-06T06:16:43.279Z,20.70
2022-09-06T06:20:46.092Z,20.80
2022-09-06T06:24:50.229Z,20.80
2022-09-06T06:28:53.310Z,20.80
2022-09-06T06:32:56.364Z,20.90
2022-09-06T06:36:59.912Z,20.90
2022-09-06T06:41:06.958Z,20.90
2022-09-06T06:45:10.875Z,21.00
2022-09-06T06:49:13.687Z,20.90
2022-09-06T06:53:16.496Z,21.00
2022-09-06T06:57:20.647Z,21.00
2022-09-06T07:01:23.775Z,21.20
2022-09-06T07:14:13.518Z,22.10
2022-09-06T07:18:16.995Z,22.30
2022-09-06T07:22:19.802Z,22.50
2022-09-06T07:26:24.125Z,22.70
2022-09-06T07:30:28.597Z,23.00
2022-09-06T07:34:32.949Z,23.20
2022-09-06T07:38:37.289Z,23.50
2022-09-06T07:42:40.093Z,23.70
2022-09-06T07:46:44.280Z,23.80
2022-09-06T07:50:49.242Z,23.90
2022-09-06T07:54:53.574Z,24.00
2022-09-06T07:58:57.212Z,24.00
2022-09-06T08:03:01.310Z,24.00
2022-09-06T08:11:29.181Z,24.20
2022-09-06T08:15:33.562Z,24.20
2022-09-06T08:19:37.717Z,24.30
2022-09-06T08:23:42.638Z,24.50
2022-09-06T08:27:45.494Z,24.70
2022-09-06T08:31:48.680Z,25.00
2022-09-06T08:35:59.191Z,25.50
2022-09-06T08:40:02.078Z,26.00
2022-09-06T08:48:33.639Z,26.50
2022-09-06T08:53:13.284Z,26.80
2022-09-06T08:57:22.685Z,26.90
2022-09-06T09:01:31.097Z,27.10
2022-09-06T09:05:36.430Z,27.60
2022-09-06T09:09:40.570Z,27.90
2022-09-06T09:13:53.853Z,28.00
2022-09-06T09:17:58.439Z,28.20
2022-09-06T09:22:01.917Z,28.60
2022-09-06T09:26:14.024Z,29.10
2022-09-06T09:34:40.750Z,28.10
2022-09-06T09:38:45.722Z,28.30
2022-09-06T09:42:49.998Z,28.90
2022-09-06T09:46:52.883Z,29.10
2022-09-06T09:50:56.324Z,29.00
2022-09-06T09:55:02.494Z,29.20
2022-09-06T09:59:18.173Z,29.20
2022-09-06T10:03:28.963Z,29.90
2022-09-06T10:07:33.899Z,30.30
2022-09-06T10:11:41.715Z,30.80
2022-09-06T10:15:46.335Z,30.80
2022-09-06T10:19:49.386Z,30.00
2022-09-06T10:28:34.290Z,29.90
2022-09-06T10:32:42.637Z,30.20
2022-09-06T10:36:53.944Z,29.80
2022-09-06T10:41:06.230Z,30.10
2022-09-06T10:45:37.117Z,30.10
2022-09-06T10:49:45.968Z,29.90
2022-09-06T10:53:51.780Z,30.30
2022-09-06T10:58:20.451Z,30.30
2022-09-06T11:02:36.127Z,30.10
2022-09-06T11:06:45.709Z,30.20
2022-09-06T11:10:51.529Z,29.90
2022-09-06T11:14:54.439Z,29.90
2022-09-06T11:19:01.569Z,30.20
2022-09-06T11:23:34.687Z,30.40
2022-09-06T11:27:40.570Z,30.00
2022-09-06T11:36:29.457Z,29.30
2022-09-06T11:40:41.435Z,29.10
2022-09-06T11:45:16.491Z,29.10
2022-09-06T11:49:39.088Z,29.30
2022-09-06T11:54:09.837Z,29.50
2022-09-06T11:58:23.662Z,29.50
2022-09-06T12:02:35.251Z,29.70
2022-09-06T12:06:40.623Z,29.90
2022-09-06T12:10:57.762Z,30.20
2022-09-06T12:15:25.195Z,30.20
2022-09-06T12:19:45.285Z,30.00
2022-09-06T12:23:48.057Z,29.90
2022-09-06T12:27:56.473Z,30.10
2022-09-06T12:32:01.668Z,29.90
2022-09-06T12:36:14.905Z,29.90
2022-09-06T12:40:20.621Z,30.00
2022-09-06T12:44:31.238Z,30.30
2022-09-06T12:48:41.177Z,30.40
2022-09-06T12:52:49.743Z,30.40
2022-09-06T12:56:53.827Z,30.40
2022-09-06T13:01:10.285Z,30.20
2022-09-06T13:05:14.759Z,30.10
2022-09-06T13:09:21.598Z,30.30
2022-09-06T13:13:26.907Z,30.20
2022-09-06T13:17:31.187Z,29.90
2022-09-06T13:21:36.072Z,30.00
2022-09-06T13:25:49.280Z,30.20
2022-09-06T13:29:56.792Z,30.10
2022-09-06T13:34:00.821Z,30.40
2022-09-06T13:38:32.727Z,30.60
2022-09-06T13:42:37.199Z,30.90
2022-09-06T13:46:40.321Z,31.00
2022-09-06T13:50:43.259Z,30.70
2022-09-06T13:54:48.708Z,30.50
2022-09-06T13:58:51.457Z,30.60
2022-09-06T14:02:55.550Z,30.90
2022-09-06T14:06:58.614Z,30.80
2022-09-06T14:11:02.748Z,30.80
2022-09-06T14:15:06.625Z,30.80
2022-09-06T14:19:09.691Z,30.90
2022-09-06T14:23:12.439Z,30.90
2022-09-06T14:27:17.360Z,30.70
2022-09-06T14:31:21.786Z,30.90
2022-09-06T14:35:24.760Z,31.40
2022-09-06T14:39:27.635Z,31.90
2022-09-06T14:43:32.087Z,32.50
2022-09-06T14:47:34.976Z,32.80
2022-09-06T14:51:39.691Z,33.10
2022-09-06T14:55:42.558Z,33.30
2022-09-06T14:59:46.743Z,33.60
2022-09-06T15:03:52.428Z,34.00
2022-09-06T15:07:55.196Z,34.70
2022-09-06T15:11:58.163Z,35.10
2022-09-06T15:16:02.858Z,35.20
2022-09-06T15:20:06.705Z,35.40
2022-09-06T15:24:12.227Z,35.90
2022-09-06T15:28:15.575Z,36.50
2022-09-06T15:32:19.766Z,36.50
2022-09-06T15:36:22.756Z,36.10
2022-09-06T15:40:26.672Z,35.20
2022-09-06T15:44:29.611Z,34.70
2022-09-06T15:48:41.629Z,34.20
2022-09-06T15:52:44.373Z,34.70
2022-09-06T15:56:47.188Z,35.00
2022-09-06T16:01:04.782Z,34.50
2022-09-06T16:05:10.000Z,34.10
2022-09-06T16:09:15.013Z,34.30
2022-09-06T16:13:17.786Z,34.20
2022-09-06T16:17:22.324Z,34.20
2022-09-06T16:21:29.525Z,33.70
2022-09-06T16:25:32.502Z,33.60
2022-09-06T16:29:35.315Z,33.70
2022-09-06T16:33:59.788Z,34.00
2022-09-06T16:38:07.297Z,33.70
2022-09-06T16:42:12.518Z,33.20
2022-09-06T16:46:15.356Z,33.00
2022-09-06T16:50:18.374Z,32.80
2022-09-06T16:54:22.524Z,32.50
2022-09-06T16:58:25.384Z,32.30
2022-09-06T17:02:28.210Z,32.00
2022-09-06T17:06:32.480Z,31.70
2022-09-06T17:10:40.245Z,31.30
2022-09-06T17:14:43.035Z,30.90
2022-09-06T17:18:45.804Z,30.50
2022-09-06T17:22:50.964Z,30.20
2022-09-06T17:26:55.131Z,29.90
2022-09-06T17:31:01.964Z,29.60
2022-09-06T17:35:05.504Z,29.40
2022-09-06T17:39:13.702Z,29.10
2022-09-06T17:43:17.999Z,28.80
2022-09-06T17:47:20.775Z,28.60
2022-09-06T17:51:23.930Z,28.30
2022-09-06T17:55:28.862Z,28.10
2022-09-06T17:59:35.728Z,27.80
2022-09-06T18:03:41.248Z,27.60
2022-09-06T18:07:44.144Z,27.50
2022-09-06T18:11:47.180Z,27.30
2022-09-06T18:15:51.342Z,27.20
2022-09-06T18:19:54.175Z,27.00
2022-09-06T18:23:58.178Z,26.80
2022-09-06T18:28:01.065Z,26.60
2022-09-06T18:32:07.445Z,26.40
2022-09-06T18:36:11.860Z,26.30
2022-09-06T18:40:14.757Z,26.20
2022-09-06T18:44:18.020Z,26.10
2022-09-06T18:48:22.139Z,26.00
2022-09-06T18:52:24.871Z,25.90
2022-09-06T18:56:28.654Z,25.90
2022-09-06T19:00:31.495Z,25.80
2022-09-06T19:04:35.672Z,25.70
2022-09-06T19:08:39.100Z,25.60
2022-09-06T19:12:41.860Z,25.50
2022-09-06T19:16:45.300Z,25.40
2022-09-06T19:20:58.518Z,25.30
2022-09-06T19:25:01.345Z,25.30
2022-09-06T19:29:06.468Z,25.30
2022-09-06T19:33:09.193Z,25.10
2022-09-06T19:37:13.373Z,25.10
2022-09-06T19:41:17.840Z,25.00
2022-09-06T19:45:20.598Z,24.90
2022-09-06T19:49:23.763Z,24.70
2022-09-06T19:53:27.860Z,24.60
2022-09-06T19:57:30.630Z,24.50
2022-09-06T20:01:34.598Z,24.40
2022-09-06T20:05:37.372Z,24.30
2022-09-06T20:09:41.982Z,24.20
2022-09-06T20:13:44.760Z,24.10
2022-09-06T20:17:47.530Z,24.00
2022-09-06T20:21:50.450Z,23.80
2022-09-06T20:26:01.252Z,23.60
2022-09-06T20:30:04.358Z,23.50
2022-09-06T20:34:07.891Z,23.40
2022-09-06T20:38:10.745Z,23.30
2022-09-06T20:42:14.917Z,23.20
2022-09-06T20:46:19.892Z,23.20
2022-09-06T20:50:24.212Z,23.10
2022-09-06T20:54:28.382Z,23.00
2022-09-06T20:58:33.451Z,23.00
2022-09-06T21:02:36.212Z,23.00
2022-09-06T21:06:40.334Z,23.10
2022-09-06T21:10:43.544Z,23.20
2022-09-06T21:14:48.366Z,23.20
2022-09-06T21:18:51.827Z,23.30
2022-09-06T21:22:54.656Z,23.30
2022-09-06T21:26:57.740Z,23.30
2022-09-06T21:31:02.978Z,23.30
2022-09-06T21:35:06.549Z,23.30
2022-09-06T21:39:13.289Z,23.20
2022-09-06T21:43:16.066Z,23.20
2022-09-06T21:47:20.183Z,23.10
2022-09-06T21:51:27.117Z,23.10
2022-09-06T21:55:33.318Z,23.10
2022-09-06T21:59:36.108Z,23.10
2022-09-06T22:03:40.861Z,23.10
2022-09-06T22:07:43.665Z,23.10
2022-09-06T22:11:46.474Z,23.10
2022-09-06T22:15:49.327Z,23.10
2022-09-06T22:19:53.514Z,23.10
2022-09-06T22:23:58.242Z,23.10
2022-09-06T22:28:01.342Z,23.10
2022-09-06T22:32:04.322Z,23.10
2022-09-06T22:36:10.225Z,23.10
2022-09-06T22:40:13.259Z,23.10
2022-09-06T22:44:16.062Z,23.00
2022-09-06T22:48:19.095Z,23.00
2022-09-06T22:52:23.309Z,23.00
2022-09-06T22:56:26.203Z,22.90
2022-09-06T23:00:29.339Z,22.90
2022-09-06T23:04:32.740Z,22.90
2022-09-06T23:08:38.394Z,22.80
2022-09-06T23:12:41.146Z,22.80
2022-09-06T23:16:43.896Z,22.70
2022-09-06T23:20:46.622Z,22.60
2022-09-06T23:24:50.778Z,22.60
2022-09-06T23:28:57.270Z,22.60
2022-09-06T23:33:00.002Z,22.50
2022-09-06T23:37:02.773Z,22.50
2022-09-06T23:41:08.448Z,22.50
2022-09-06T23:45:11.586Z,22.40
2022-09-06T23:49:15.179Z,22.40
2022-09-06T23:53:18.904Z,22.40
2022-09-06T23:57:23.076Z,22.30
